sensor_id;sensor_type;location;lat;lon;timestamp;temperature;humidity
9544;DHT22;30418;51.45933468;7.33152330;2023-05-07T00:00:06;20.10;58.80
9544;DHT22;30418;51.45933468;7.33152330;2023-05-07T00:02:37;20.10;58.90
9544;DHT22;30418;51.45933468;7.33152330;2023-05-07T00:05:06;20.10;59.00
9544;DHT22;30418;51.45933468;7.33152330;2023-05-07T00:07:36;20.10;58.90
9544;DHT22;30418;51.45933468;7.33152330;2023-05-07T00:10:06;20.10;58.90
9544;DHT22;30418;51.45933468;7.33152330;2023-05-07T00:12:36;20.10;59.10
9544;DHT22;30418;51.45933468;7.33152330;2023-05-07T00:15:06;20.10;58.90
9544;DHT22;30418;51.45933468;7.33152330;2023-05-07T00:17:37;20.10;59.00
9544;DHT22;30418;51.45933468;7.33152330;2023-05-07T00:20:06;20.00;59.00
9544;DHT22;30418;51.45933468;7.33152330;2023-05-07T00:22:35;20.00;59.00
9544;DHT22;30418;51.45933468;7.33152330;2023-05-07T00:25:05;20.00;59.00
9544;DHT22;30418;51.45933468;7.33152330;2023-05-07T00:27:34;20.00;59.10
9544;DHT22;30418;51.45933468;7.33152330;2023-05-07T00:30:03;20.00;59.20
9544;DHT22;30418;51.45933468;7.33152330;2023-05-07T00:32:32;20.00;59.20
9544;DHT22;30418;51.45933468;7.33152330;2023-05-07T00:35:02;20.00;59.20
9544;DHT22;30418;51.45933468;7.33152330;2023-05-07T00:37:32;20.00;60.00
9544;DHT22;30418;51.45933468;7.33152330;2023-05-07T00:40:01;20.00;59.30
9544;DHT22;30418;51.45933468;7.33152330;2023-05-07T00:42:31;20.00;60.00
9544;DHT22;30418;51.45933468;7.33152330;2023-05-07T00:45:00;20.00;59.40
9544;DHT22;30418;51.45933468;7.33152330;2023-05-07T00:47:28;20.00;59.40
9544;DHT22;30418;51.45933468;7.33152330;2023-05-07T00:49:57;20.00;59.40
9544;DHT22;30418;51.45933468;7.33152330;2023-05-07T00:52:27;20.00;59.40
9544;DHT22;30418;51.45933468;7.33152330;2023-05-07T00:54:57;19.90;59.40
9544;DHT22;30418;51.45933468;7.33152330;2023-05-07T00:57:25;19.90;59.40
9544;DHT22;30418;51.45933468;7.33152330;2023-05-07T00:59:54;19.90;59.40
9544;DHT22;30418;51.45933468;7.33152330;2023-05-07T01:02:22;19.90;59.50
9544;DHT22;30418;51.45933468;7.33152330;2023-05-07T01:04:51;19.90;59.60
9544;DHT22;30418;51.45933468;7.33152330;2023-05-07T01:07:20;19.90;59.70
9544;DHT22;30418;51.45933468;7.33152330;2023-05-07T01:09:50;19.90;59.80
9544;DHT22;30418;51.45933468;7.33152330;2023-05-07T01:12:19;19.80;59.80
9544;DHT22;30418;51.45933468;7.33152330;2023-05-07T01:14:48;19.90;59.80
9544;DHT22;30418;51.45933468;7.33152330;2023-05-07T01:17:17;19.80;59.70
9544;DHT22;30418;51.45933468;7.33152330;2023-05-07T01:19:46;19.90;59.80
9544;DHT22;30418;51.45933468;7.33152330;2023-05-07T01:22:29;19.90;59.90
9544;DHT22;30418;51.45933468;7.33152330;2023-05-07T01:24:59;19.80;59.70
9544;DHT22;30418;51.45933468;7.33152330;2023-05-07T01:27:29;19.80;59.70
9544;DHT22;30418;51.45933468;7.33152330;2023-05-07T01:29:57;19.80;59.70
9544;DHT22;30418;51.45933468;7.33152330;2023-05-07T01:32:29;19.80;59.70
9544;DHT22;30418;51.45933468;7.33152330;2023-05-07T01:35:03;19.80;59.80
9544;DHT22;30418;51.45933468;7.33152330;2023-05-07T01:37:35;19.80;59.70
9544;DHT22;30418;51.45933468;7.33152330;2023-05-07T01:40:05;19.80;59.80
9544;DHT22;30418;51.45933468;7.33152330;2023-05-07T01:42:35;19.80;59.80
9544;DHT22;30418;51.45933468;7.33152330;2023-05-07T01:45:05;19.70;59.70
9544;DHT22;30418;51.45933468;7.33152330;2023-05-07T01:47:36;19.70;59.70
9544;DHT22;30418;51.45933468;7.33152330;2023-05-07T01:50:06;19.70;59.90
9544;DHT22;30418;51.45933468;7.33152330;2023-05-07T01:52:39;19.70;59.90
9544;DHT22;30418;51.45933468;7.33152330;2023-05-07T01:55:08;19.70;60.00
9544;DHT22;30418;51.45933468;7.33152330;2023-05-07T01:57:36;19.70;60.00
9544;DHT22;30418;51.45933468;7.33152330;2023-05-07T02:00:06;19.70;60.00
9544;DHT22;30418;51.45933468;7.33152330;2023-05-07T02:02:43;19.60;60.00
9544;DHT22;30418;51.45933468;7.33152330;2023-05-07T02:05:30;19.70;60.10
9544;DHT22;30418;51.45933468;7.33152330;2023-05-07T02:08:06;19.70;60.10
9544;DHT22;30418;51.45933468;7.33152330;2023-05-07T02:10:35;19.60;60.00
9544;DHT22;30418;51.45933468;7.33152330;2023-05-07T02:13:05;19.60;60.00
9544;DHT22;30418;51.45933468;7.33152330;2023-05-07T02:15:34;19.60;60.00
9544;DHT22;30418;51.45933468;7.33152330;2023-05-07T02:18:05;19.60;60.00
9544;DHT22;30418;51.45933468;7.33152330;2023-05-07T02:20:35;19.60;60.10
9544;DHT22;30418;51.45933468;7.33152330;2023-05-07T02:23:03;19.60;60.00
9544;DHT22;30418;51.45933468;7.33152330;2023-05-07T02:25:33;19.60;60.00
9544;DHT22;30418;51.45933468;7.33152330;2023-05-07T02:28:02;19.60;60.10
9544;DHT22;30418;51.45933468;7.33152330;2023-05-07T02:30:53;19.60;60.00
9544;DHT22;30418;51.45933468;7.33152330;2023-05-07T02:33:22;19.60;60.00
9544;DHT22;30418;51.45933468;7.33152330;2023-05-07T02:35:50;19.60;60.10
9544;DHT22;30418;51.45933468;7.33152330;2023-05-07T02:38:19;19.60;60.10
9544;DHT22;30418;51.45933468;7.33152330;2023-05-07T02:40:49;19.50;60.00
9544;DHT22;30418;51.45933468;7.33152330;2023-05-07T02:43:18;19.50;60.00
9544;DHT22;30418;51.45933468;7.33152330;2023-05-07T02:45:48;19.50;60.00
9544;DHT22;30418;51.45933468;7.33152330;2023-05-07T02:48:17;19.50;60.00
9544;DHT22;30418;51.45933468;7.33152330;2023-05-07T02:50:45;19.50;60.10
9544;DHT22;30418;51.45933468;7.33152330;2023-05-07T02:53:14;19.50;60.10
9544;DHT22;30418;51.45933468;7.33152330;2023-05-07T02:55:43;19.40;60.00
9544;DHT22;30418;51.45933468;7.33152330;2023-05-07T02:58:13;19.40;60.00
9544;DHT22;30418;51.45933468;7.33152330;2023-05-07T03:00:42;19.40;60.20
9544;DHT22;30418;51.45933468;7.33152330;2023-05-07T03:03:31;19.40;60.20
9544;DHT22;30418;51.45933468;7.33152330;2023-05-07T03:06:00;19.40;60.20
9544;DHT22;30418;51.45933468;7.33152330;2023-05-07T03:08:28;19.30;60.10
9544;DHT22;30418;51.45933468;7.33152330;2023-05-07T03:10:57;19.40;60.20
9544;DHT22;30418;51.45933468;7.33152330;2023-05-07T03:13:28;19.30;60.20
9544;DHT22;30418;51.45933468;7.33152330;2023-05-07T03:15:56;19.30;60.30
9544;DHT22;30418;51.45933468;7.33152330;2023-05-07T03:18:25;19.30;60.20
9544;DHT22;30418;51.45933468;7.33152330;2023-05-07T03:20:53;19.30;60.30
9544;DHT22;30418;51.45933468;7.33152330;2023-05-07T03:23:22;19.20;60.20
9544;DHT22;30418;51.45933468;7.33152330;2023-05-07T03:25:51;19.20;60.40
9544;DHT22;30418;51.45933468;7.33152330;2023-05-07T03:28:19;19.20;60.40
9544;DHT22;30418;51.45933468;7.33152330;2023-05-07T03:30:58;19.20;60.50
9544;DHT22;30418;51.45933468;7.33152330;2023-05-07T03:33:26;19.20;60.60
9544;DHT22;30418;51.45933468;7.33152330;2023-05-07T03:35:56;19.20;60.50
9544;DHT22;30418;51.45933468;7.33152330;2023-05-07T03:38:25;19.20;60.60
9544;DHT22;30418;51.45933468;7.33152330;2023-05-07T03:40:54;19.10;60.60
9544;DHT22;30418;51.45933468;7.33152330;2023-05-07T03:43:23;19.10;60.70
9544;DHT22;30418;51.45933468;7.33152330;2023-05-07T03:46:01;19.10;60.80
9544;DHT22;30418;51.45933468;7.33152330;2023-05-07T03:48:29;19.10;61.00
9544;DHT22;30418;51.45933468;7.33152330;2023-05-07T03:50:59;19.00;61.00
9544;DHT22;30418;51.45933468;7.33152330;2023-05-07T03:53:31;19.00;61.20
9544;DHT22;30418;51.45933468;7.33152330;2023-05-07T03:56:00;19.00;61.30
9544;DHT22;30418;51.45933468;7.33152330;2023-05-07T03:58:33;19.00;61.40
9544;DHT22;30418;51.45933468;7.33152330;2023-05-07T04:01:08;19.00;61.50
9544;DHT22;30418;51.45933468;7.33152330;2023-05-07T04:03:36;18.90;61.60
9544;DHT22;30418;51.45933468;7.33152330;2023-05-07T04:06:05;18.90;61.60
9544;DHT22;30418;51.45933468;7.33152330;2023-05-07T04:08:35;18.90;61.80
9544;DHT22;30418;51.45933468;7.33152330;2023-05-07T04:11:05;18.90;61.80
9544;DHT22;30418;51.45933468;7.33152330;2023-05-07T04:13:36;18.90;61.80
9544;DHT22;30418;51.45933468;7.33152330;2023-05-07T04:16:07;18.90;61.90
9544;DHT22;30418;51.45933468;7.33152330;2023-05-07T04:18:37;18.90;61.90
9544;DHT22;30418;51.45933468;7.33152330;2023-05-07T04:21:06;18.90;61.90
9544;DHT22;30418;51.45933468;7.33152330;2023-05-07T04:23:42;18.90;61.90
9544;DHT22;30418;51.45933468;7.33152330;2023-05-07T04:26:12;18.90;62.00
9544;DHT22;30418;51.45933468;7.33152330;2023-05-07T04:28:43;18.90;62.10
9544;DHT22;30418;51.45933468;7.33152330;2023-05-07T04:31:15;18.90;62.10
9544;DHT22;30418;51.45933468;7.33152330;2023-05-07T04:33:48;18.90;62.30
9544;DHT22;30418;51.45933468;7.33152330;2023-05-07T04:36:18;18.90;62.20
9544;DHT22;30418;51.45933468;7.33152330;2023-05-07T04:38:51;18.90;62.30
9544;DHT22;30418;51.45933468;7.33152330;2023-05-07T04:41:20;18.90;62.30
9544;DHT22;30418;51.45933468;7.33152330;2023-05-07T04:43:49;18.90;62.30
9544;DHT22;30418;51.45933468;7.33152330;2023-05-07T04:46:22;18.90;62.40
9544;DHT22;30418;51.45933468;7.33152330;2023-05-07T04:48:53;18.90;62.40
9544;DHT22;30418;51.45933468;7.33152330;2023-05-07T04:51:21;18.90;62.30
9544;DHT22;30418;51.45933468;7.33152330;2023-05-07T04:53:50;18.90;62.40
9544;DHT22;30418;51.45933468;7.33152330;2023-05-07T04:56:19;18.90;62.40
9544;DHT22;30418;51.45933468;7.33152330;2023-05-07T04:58:48;18.90;62.40
9544;DHT22;30418;51.45933468;7.33152330;2023-05-07T05:01:20;18.90;62.50
9544;DHT22;30418;51.45933468;7.33152330;2023-05-07T05:03:50;19.00;62.90
9544;DHT22;30418;51.45933468;7.33152330;2023-05-07T05:06:20;19.00;62.70
9544;DHT22;30418;51.45933468;7.33152330;2023-05-07T05:08:50;19.00;62.70
9544;DHT22;30418;51.45933468;7.33152330;2023-05-07T05:11:20;19.00;62.80
9544;DHT22;30418;51.45933468;7.33152330;2023-05-07T05:13:48;19.00;62.80
9544;DHT22;30418;51.45933468;7.33152330;2023-05-07T05:16:20;19.00;62.80
9544;DHT22;30418;51.45933468;7.33152330;2023-05-07T05:18:50;19.10;62.90
9544;DHT22;30418;51.45933468;7.33152330;2023-05-07T05:21:19;19.10;62.80
9544;DHT22;30418;51.45933468;7.33152330;2023-05-07T05:23:51;19.10;62.80
9544;DHT22;30418;51.45933468;7.33152330;2023-05-07T05:26:22;19.10;62.80
9544;DHT22;30418;51.45933468;7.33152330;2023-05-07T05:28:51;19.10;63.10
9544;DHT22;30418;51.45933468;7.33152330;2023-05-07T05:31:24;19.20;62.80
9544;DHT22;30418;51.45933468;7.33152330;2023-05-07T05:33:53;19.20;62.90
9544;DHT22;30418;51.45933468;7.33152330;2023-05-07T05:36:21;19.20;62.80
9544;DHT22;30418;51.45933468;7.33152330;2023-05-07T05:38:53;19.20;62.80
9544;DHT22;30418;51.45933468;7.33152330;2023-05-07T05:41:22;19.20;62.80
9544;DHT22;30418;51.45933468;7.33152330;2023-05-07T05:43:52;19.20;62.80
9544;DHT22;30418;51.45933468;7.33152330;2023-05-07T05:46:21;19.20;62.80
9544;DHT22;30418;51.45933468;7.33152330;2023-05-07T05:48:52;19.20;62.80
9544;DHT22;30418;51.45933468;7.33152330;2023-05-07T05:51:21;19.20;62.80
9544;DHT22;30418;51.45933468;7.33152330;2023-05-07T05:53:50;19.20;62.80
9544;DHT22;30418;51.45933468;7.33152330;2023-05-07T05:56:19;19.20;62.80
9544;DHT22;30418;51.45933468;7.33152330;2023-05-07T05:58:48;19.30;62.90
9544;DHT22;30418;51.45933468;7.33152330;2023-05-07T06:01:17;19.30;62.80
9544;DHT22;30418;51.45933468;7.33152330;2023-05-07T06:03:49;19.30;62.80
9544;DHT22;30418;51.45933468;7.33152330;2023-05-07T06:06:19;19.30;62.80
9544;DHT22;30418;51.45933468;7.33152330;2023-05-07T06:08:47;19.30;62.90
9544;DHT22;30418;51.45933468;7.33152330;2023-05-07T06:11:21;19.30;62.70
9544;DHT22;30418;51.45933468;7.33152330;2023-05-07T06:13:49;19.30;62.80
9544;DHT22;30418;51.45933468;7.33152330;2023-05-07T06:16:18;19.40;62.80
9544;DHT22;30418;51.45933468;7.33152330;2023-05-07T06:18:47;19.40;62.80
9544;DHT22;30418;51.45933468;7.33152330;2023-05-07T06:21:16;19.40;62.70
9544;DHT22;30418;51.45933468;7.33152330;2023-05-07T06:23:46;19.40;62.80
9544;DHT22;30418;51.45933468;7.33152330;2023-05-07T06:26:15;19.40;62.70
9544;DHT22;30418;51.45933468;7.33152330;2023-05-07T06:28:46;19.40;62.70
9544;DHT22;30418;51.45933468;7.33152330;2023-05-07T06:31:18;19.50;62.80
9544;DHT22;30418;51.45933468;7.33152330;2023-05-07T06:33:59;19.50;62.80
9544;DHT22;30418;51.45933468;7.33152330;2023-05-07T06:36:34;19.50;62.60
9544;DHT22;30418;51.45933468;7.33152330;2023-05-07T06:39:13;19.50;62.50
9544;DHT22;30418;51.45933468;7.33152330;2023-05-07T06:41:42;19.60;62.70
9544;DHT22;30418;51.45933468;7.33152330;2023-05-07T06:44:21;19.60;62.70
9544;DHT22;30418;51.45933468;7.33152330;2023-05-07T06:47:06;19.60;62.70
9544;DHT22;30418;51.45933468;7.33152330;2023-05-07T06:49:38;19.70;62.80
9544;DHT22;30418;51.45933468;7.33152330;2023-05-07T06:52:06;19.70;62.80
9544;DHT22;30418;51.45933468;7.33152330;2023-05-07T06:54:36;19.70;62.80
9544;DHT22;30418;51.45933468;7.33152330;2023-05-07T06:57:05;19.70;62.90
9544;DHT22;30418;51.45933468;7.33152330;2023-05-07T06:59:34;19.70;62.90
9544;DHT22;30418;51.45933468;7.33152330;2023-05-07T07:02:03;19.80;63.00
9544;DHT22;30418;51.45933468;7.33152330;2023-05-07T07:04:32;19.80;62.90
9544;DHT22;30418;51.45933468;7.33152330;2023-05-07T07:07:05;19.90;63.10
9544;DHT22;30418;51.45933468;7.33152330;2023-05-07T07:09:36;19.90;63.10
9544;DHT22;30418;51.45933468;7.33152330;2023-05-07T07:12:06;19.90;63.10
9544;DHT22;30418;51.45933468;7.33152330;2023-05-07T07:14:37;19.90;63.00
9544;DHT22;30418;51.45933468;7.33152330;2023-05-07T07:17:06;20.00;63.10
9544;DHT22;30418;51.45933468;7.33152330;2023-05-07T07:19:35;20.00;63.10
9544;DHT22;30418;51.45933468;7.33152330;2023-05-07T07:22:04;20.00;63.10
9544;DHT22;30418;51.45933468;7.33152330;2023-05-07T07:24:33;20.10;63.10
9544;DHT22;30418;51.45933468;7.33152330;2023-05-07T07:27:06;20.10;63.00
9544;DHT22;30418;51.45933468;7.33152330;2023-05-07T07:29:34;20.10;63.00
9544;DHT22;30418;51.45933468;7.33152330;2023-05-07T07:32:03;20.10;62.90
9544;DHT22;30418;51.45933468;7.33152330;2023-05-07T07:34:32;20.20;63.10
9544;DHT22;30418;51.45933468;7.33152330;2023-05-07T07:37:01;20.20;63.00
9544;DHT22;30418;51.45933468;7.33152330;2023-05-07T07:39:34;20.20;62.90
9544;DHT22;30418;51.45933468;7.33152330;2023-05-07T07:42:07;20.30;63.00
9544;DHT22;30418;51.45933468;7.33152330;2023-05-07T07:44:35;20.30;62.80
9544;DHT22;30418;51.45933468;7.33152330;2023-05-07T07:47:09;20.30;62.80
9544;DHT22;30418;51.45933468;7.33152330;2023-05-07T07:49:37;20.30;62.80
9544;DHT22;30418;51.45933468;7.33152330;2023-05-07T07:52:08;20.30;62.80
9544;DHT22;30418;51.45933468;7.33152330;2023-05-07T07:54:38;20.40;63.10
9544;DHT22;30418;51.45933468;7.33152330;2023-05-07T07:57:09;20.40;63.10
9544;DHT22;30418;51.45933468;7.33152330;2023-05-07T07:59:37;20.40;63.10
9544;DHT22;30418;51.45933468;7.33152330;2023-05-07T08:02:07;20.40;62.90
9544;DHT22;30418;51.45933468;7.33152330;2023-05-07T08:04:36;20.50;62.90
9544;DHT22;30418;51.45933468;7.33152330;2023-05-07T08:07:07;20.50;62.90
9544;DHT22;30418;51.45933468;7.33152330;2023-05-07T08:09:39;20.50;62.90
9544;DHT22;30418;51.45933468;7.33152330;2023-05-07T08:12:11;20.60;63.10
9544;DHT22;30418;51.45933468;7.33152330;2023-05-07T08:14:40;20.60;63.10
9544;DHT22;30418;51.45933468;7.33152330;2023-05-07T08:17:08;20.60;62.90
9544;DHT22;30418;51.45933468;7.33152330;2023-05-07T08:19:38;20.60;62.90
9544;DHT22;30418;51.45933468;7.33152330;2023-05-07T08:22:10;20.60;62.90
9544;DHT22;30418;51.45933468;7.33152330;2023-05-07T08:24:38;20.60;62.90
9544;DHT22;30418;51.45933468;7.33152330;2023-05-07T08:27:08;20.70;62.90
9544;DHT22;30418;51.45933468;7.33152330;2023-05-07T08:29:40;20.70;62.90
9544;DHT22;30418;51.45933468;7.33152330;2023-05-07T08:32:09;20.70;62.90
9544;DHT22;30418;51.45933468;7.33152330;2023-05-07T08:34:38;20.80;63.10
9544;DHT22;30418;51.45933468;7.33152330;2023-05-07T08:37:07;20.80;63.10
9544;DHT22;30418;51.45933468;7.33152330;2023-05-07T08:39:36;20.80;63.00
9544;DHT22;30418;51.45933468;7.33152330;2023-05-07T08:42:10;20.90;63.10
9544;DHT22;30418;51.45933468;7.33152330;2023-05-07T08:44:41;20.90;63.10
9544;DHT22;30418;51.45933468;7.33152330;2023-05-07T08:47:15;21.00;63.30
9544;DHT22;30418;51.45933468;7.33152330;2023-05-07T08:49:45;21.00;64.30
9544;DHT22;30418;51.45933468;7.33152330;2023-05-07T08:52:15;21.10;63.60
9544;DHT22;30418;51.45933468;7.33152330;2023-05-07T08:54:44;21.10;63.60
9544;DHT22;30418;51.45933468;7.33152330;2023-05-07T08:57:12;21.30;64.00
9544;DHT22;30418;51.45933468;7.33152330;2023-05-07T08:59:42;21.30;63.80
9544;DHT22;30418;51.45933468;7.33152330;2023-05-07T09:02:12;21.40;63.70
9544;DHT22;30418;51.45933468;7.33152330;2023-05-07T09:04:40;21.50;63.50
9544;DHT22;30418;51.45933468;7.33152330;2023-05-07T09:07:10;21.50;63.30
9544;DHT22;30418;51.45933468;7.33152330;2023-05-07T09:09:44;21.60;64.00
9544;DHT22;30418;51.45933468;7.33152330;2023-05-07T09:12:14;21.60;63.00
9544;DHT22;30418;51.45933468;7.33152330;2023-05-07T09:14:44;21.60;62.80
9544;DHT22;30418;51.45933468;7.33152330;2023-05-07T09:17:13;21.70;63.00
9544;DHT22;30418;51.45933468;7.33152330;2023-05-07T09:19:43;21.70;62.80
9544;DHT22;30418;51.45933468;7.33152330;2023-05-07T09:22:13;21.70;62.50
9544;DHT22;30418;51.45933468;7.33152330;2023-05-07T09:25:05;21.70;62.40
9544;DHT22;30418;51.45933468;7.33152330;2023-05-07T09:27:37;21.70;62.40
9544;DHT22;30418;51.45933468;7.33152330;2023-05-07T09:30:09;21.70;62.40
9544;DHT22;30418;51.45933468;7.33152330;2023-05-07T09:32:38;21.70;62.50
9544;DHT22;30418;51.45933468;7.33152330;2023-05-07T09:35:15;21.80;62.80
9544;DHT22;30418;51.45933468;7.33152330;2023-05-07T09:37:49;21.80;62.80
9544;DHT22;30418;51.45933468;7.33152330;2023-05-07T09:40:23;21.80;62.50
9544;DHT22;30418;51.45933468;7.33152330;2023-05-07T09:42:54;21.90;62.80
9544;DHT22;30418;51.45933468;7.33152330;2023-05-07T09:45:27;21.90;63.00
9544;DHT22;30418;51.45933468;7.33152330;2023-05-07T09:47:58;22.00;63.10
9544;DHT22;30418;51.45933468;7.33152330;2023-05-07T09:50:32;22.00;62.80
9544;DHT22;30418;51.45933468;7.33152330;2023-05-07T09:53:04;22.10;62.40
9544;DHT22;30418;51.45933468;7.33152330;2023-05-07T09:55:33;22.10;62.30
9544;DHT22;30418;51.45933468;7.33152330;2023-05-07T09:58:02;22.10;62.20
9544;DHT22;30418;51.45933468;7.33152330;2023-05-07T10:00:34;22.20;62.30
9544;DHT22;30418;51.45933468;7.33152330;2023-05-07T10:03:09;22.20;62.20
9544;DHT22;30418;51.45933468;7.33152330;2023-05-07T10:05:51;22.20;62.00
9544;DHT22;30418;51.45933468;7.33152330;2023-05-07T10:08:20;22.20;61.70
9544;DHT22;30418;51.45933468;7.33152330;2023-05-07T10:10:53;22.30;62.00
9544;DHT22;30418;51.45933468;7.33152330;2023-05-07T10:13:24;22.30;62.20
9544;DHT22;30418;51.45933468;7.33152330;2023-05-07T10:15:57;22.30;62.30
9544;DHT22;30418;51.45933468;7.33152330;2023-05-07T10:18:31;22.40;62.30
9544;DHT22;30418;51.45933468;7.33152330;2023-05-07T10:21:13;22.40;62.10
9544;DHT22;30418;51.45933468;7.33152330;2023-05-07T10:23:49;22.50;61.70
9544;DHT22;30418;51.45933468;7.33152330;2023-05-07T10:26:20;22.60;61.70
9544;DHT22;30418;51.45933468;7.33152330;2023-05-07T10:28:56;22.60;61.30
9544;DHT22;30418;51.45933468;7.33152330;2023-05-07T10:31:48;22.70;61.20
9544;DHT22;30418;51.45933468;7.33152330;2023-05-07T10:34:23;22.80;61.10
9544;DHT22;30418;51.45933468;7.33152330;2023-05-07T10:36:54;22.90;61.40
9544;DHT22;30418;51.45933468;7.33152330;2023-05-07T10:39:24;23.00;61.30
9544;DHT22;30418;51.45933468;7.33152330;2023-05-07T10:41:53;23.00;60.50
9544;DHT22;30418;51.45933468;7.33152330;2023-05-07T10:44:26;23.10;60.20
9544;DHT22;30418;51.45933468;7.33152330;2023-05-07T10:47:09;23.20;60.00
9544;DHT22;30418;51.45933468;7.33152330;2023-05-07T10:53:24;23.40;59.00
9544;DHT22;30418;51.45933468;7.33152330;2023-05-07T10:56:25;23.40;58.80
9544;DHT22;30418;51.45933468;7.33152330;2023-05-07T10:59:36;23.40;58.60
9544;DHT22;30418;51.45933468;7.33152330;2023-05-07T11:02:23;23.40;58.30
9544;DHT22;30418;51.45933468;7.33152330;2023-05-07T11:05:20;23.40;58.50
9544;DHT22;30418;51.45933468;7.33152330;2023-05-07T11:08:09;23.40;58.30
9544;DHT22;30418;51.45933468;7.33152330;2023-05-07T11:10:52;23.40;58.60
9544;DHT22;30418;51.45933468;7.33152330;2023-05-07T11:13:43;23.40;58.60
9544;DHT22;30418;51.45933468;7.33152330;2023-05-07T11:16:33;23.40;58.10
9544;DHT22;30418;51.45933468;7.33152330;2023-05-07T11:19:14;23.40;58.40
9544;DHT22;30418;51.45933468;7.33152330;2023-05-07T11:21:47;23.40;58.20
9544;DHT22;30418;51.45933468;7.33152330;2023-05-07T11:24:39;23.40;58.10
9544;DHT22;30418;51.45933468;7.33152330;2023-05-07T11:27:10;23.40;58.20
9544;DHT22;30418;51.45933468;7.33152330;2023-05-07T11:29:39;23.40;58.10
9544;DHT22;30418;51.45933468;7.33152330;2023-05-07T11:32:12;23.40;58.00
9544;DHT22;30418;51.45933468;7.33152330;2023-05-07T11:34:51;23.40;57.80
9544;DHT22;30418;51.45933468;7.33152330;2023-05-07T11:37:22;23.40;57.80
9544;DHT22;30418;51.45933468;7.33152330;2023-05-07T11:40:05;23.40;57.80
9544;DHT22;30418;51.45933468;7.33152330;2023-05-07T11:42:37;23.40;57.80
9544;DHT22;30418;51.45933468;7.33152330;2023-05-07T11:45:07;23.40;57.80
9544;DHT22;30418;51.45933468;7.33152330;2023-05-07T11:47:36;23.40;57.80
9544;DHT22;30418;51.45933468;7.33152330;2023-05-07T11:50:10;23.40;57.80
9544;DHT22;30418;51.45933468;7.33152330;2023-05-07T11:52:38;23.30;57.70
9544;DHT22;30418;51.45933468;7.33152330;2023-05-07T11:55:08;23.30;57.70
9544;DHT22;30418;51.45933468;7.33152330;2023-05-07T11:57:37;23.40;57.80
9544;DHT22;30418;51.45933468;7.33152330;2023-05-07T12:00:06;23.30;57.80
9544;DHT22;30418;51.45933468;7.33152330;2023-05-07T12:02:40;23.40;57.90
9544;DHT22;30418;51.45933468;7.33152330;2023-05-07T12:05:11;23.30;57.80
9544;DHT22;30418;51.45933468;7.33152330;2023-05-07T12:07:41;23.40;57.80
9544;DHT22;30418;51.45933468;7.33152330;2023-05-07T12:10:11;23.40;57.80
9544;DHT22;30418;51.45933468;7.33152330;2023-05-07T12:12:40;23.30;57.70
9544;DHT22;30418;51.45933468;7.33152330;2023-05-07T12:15:10;23.30;57.70
9544;DHT22;30418;51.45933468;7.33152330;2023-05-07T12:17:40;23.30;57.70
9544;DHT22;30418;51.45933468;7.33152330;2023-05-07T12:20:11;23.40;57.80
9544;DHT22;30418;51.45933468;7.33152330;2023-05-07T12:22:40;23.30;57.70
9544;DHT22;30418;51.45933468;7.33152330;2023-05-07T12:25:09;23.40;57.80
9544;DHT22;30418;51.45933468;7.33152330;2023-05-07T12:27:40;23.40;57.80
9544;DHT22;30418;51.45933468;7.33152330;2023-05-07T12:30:10;23.40;57.80
9544;DHT22;30418;51.45933468;7.33152330;2023-05-07T12:32:40;23.40;58.30
9544;DHT22;30418;51.45933468;7.33152330;2023-05-07T12:35:08;23.40;57.50
9544;DHT22;30418;51.45933468;7.33152330;2023-05-07T12:37:40;23.40;57.50
9544;DHT22;30418;51.45933468;7.33152330;2023-05-07T12:40:11;23.40;57.30
9544;DHT22;30418;51.45933468;7.33152330;2023-05-07T12:42:40;23.50;57.40
9544;DHT22;30418;51.45933468;7.33152330;2023-05-07T12:45:10;23.50;57.40
9544;DHT22;30418;51.45933468;7.33152330;2023-05-07T12:47:43;23.50;57.40
9544;DHT22;30418;51.45933468;7.33152330;2023-05-07T12:50:14;23.50;57.30
9544;DHT22;30418;51.45933468;7.33152330;2023-05-07T12:52:43;23.60;57.40
9544;DHT22;30418;51.45933468;7.33152330;2023-05-07T12:55:14;23.60;57.40
9544;DHT22;30418;51.45933468;7.33152330;2023-05-07T12:57:47;23.60;57.30
9544;DHT22;30418;51.45933468;7.33152330;2023-05-07T13:00:17;23.60;57.10
9544;DHT22;30418;51.45933468;7.33152330;2023-05-07T13:02:46;23.70;57.20
9544;DHT22;30418;51.45933468;7.33152330;2023-05-07T13:05:16;23.70;57.20
9544;DHT22;30418;51.45933468;7.33152330;2023-05-07T13:07:52;23.70;57.20
9544;DHT22;30418;51.45933468;7.33152330;2023-05-07T13:10:22;23.70;56.90
9544;DHT22;30418;51.45933468;7.33152330;2023-05-07T13:12:51;23.70;57.10
9544;DHT22;30418;51.45933468;7.33152330;2023-05-07T13:15:20;23.60;57.00
9544;DHT22;30418;51.45933468;7.33152330;2023-05-07T13:17:50;23.70;57.00
9544;DHT22;30418;51.45933468;7.33152330;2023-05-07T13:20:20;23.60;56.80
9544;DHT22;30418;51.45933468;7.33152330;2023-05-07T13:22:49;23.60;56.50
9544;DHT22;30418;51.45933468;7.33152330;2023-05-07T13:25:17;23.60;56.30
9544;DHT22;30418;51.45933468;7.33152330;2023-05-07T13:27:46;23.50;56.20
9544;DHT22;30418;51.45933468;7.33152330;2023-05-07T13:30:29;23.50;56.20
9544;DHT22;30418;51.45933468;7.33152330;2023-05-07T13:32:57;23.50;56.20
9544;DHT22;30418;51.45933468;7.33152330;2023-05-07T13:35:27;23.50;56.20
9544;DHT22;30418;51.45933468;7.33152330;2023-05-07T13:37:56;23.40;55.90
9544;DHT22;30418;51.45933468;7.33152330;2023-05-07T13:40:25;23.40;55.90
9544;DHT22;30418;51.45933468;7.33152330;2023-05-07T13:42:56;23.40;55.90
9544;DHT22;30418;51.45933468;7.33152330;2023-05-07T13:45:25;23.40;55.90
9544;DHT22;30418;51.45933468;7.33152330;2023-05-07T13:47:56;23.40;56.00
9544;DHT22;30418;51.45933468;7.33152330;2023-05-07T13:50:26;23.40;56.10
9544;DHT22;30418;51.45933468;7.33152330;2023-05-07T13:52:56;23.30;56.10
9544;DHT22;30418;51.45933468;7.33152330;2023-05-07T13:55:25;23.30;56.10
9544;DHT22;30418;51.45933468;7.33152330;2023-05-07T13:57:57;23.30;56.10
9544;DHT22;30418;51.45933468;7.33152330;2023-05-07T14:00:28;23.30;56.10